臺北終端管制區 - 桃園掃描雷達席

METAR RCTP 240830Z 01010KT 3500 -RA BR SCT003 BKN006 BKN016 24/23 Q1011 NOSIG RMK A2986(O)=

站台狀態:Online
最後更新:2020-09-24 16:30:01